Terminal Aerodrome Forecast
Issued by NWS Brownsville, TX

Home | Current Version | Previous Version | Text Only | Print | Product List | Glossary On
Versions: 1 2 3 4 5 6 7 8 9 10 11 12 13 14 15 16
000
FTUS44 KBRO 200305 AAA
TAFHRL
TAF AMD
KHRL 200305Z 2003/2024 33005KT P6SM SKC
     FM201400 36004KT P6SM VCSH BKN050 OVC070
     FM201800 12007KT P6SM OVC050=

USA.gov is the U.S. government's official web portal to all federal, state and local government web resources and services.